Terminal Aerodrome Forecast
Issued by NWS Twin Cities, MN

Home | Current Version | Previous Version | Graphics & Text | Print | Product List | Glossary On
Versions: 1 2 3 4 5 6 7 8 9 10 11 12 13 14 15 16 17 18 19 20
000
FTUS43 KMPX 271120
TAFEAU
TAF
KEAU 271120Z 2712/2812 28008KT 6SM BR SCT008 BKN080
      TEMPO 2712/2713 3SM BR BKN005
     FM271500 26010KT P6SM SCT020 BKN050
     FM271800 26012G17KT P6SM VCSH BKN050
     FM280300 24004KT P6SM SKC=

USA.gov is the U.S. government's official web portal to all federal, state and local government web resources and services.